Time;durP1;ratioP1;P1;durP2;ratioP2;P2;SDS_P1;SDS_P2;PMS_P1;PMS_P2;Temp;Humidity;BMP_temperature;BMP_pressure;BME280_temperature;BME280_humidity;BME280_pressure;Samples;Min_cycle;Max_cycle;Signal;HPM_P1;HPM_P2
2021/11/15 00:01:06;;;;;;;59.40;27.80;;;;;;;6.03;76.69;101526.30;126539;1309;109345;-78
2021/11/15 00:04:13;;;;;;;54.70;26.20;;;;;;;6.01;76.56;101530.32;126532;1312;108755;-78
2021/11/15 00:07:18;;;;;;;60.80;27.60;;;;;;;6.04;76.88;101531.39;126574;1309;108670;-77
2021/11/15 00:10:24;;;;;;;59.40;28.80;;;;;;;6.04;76.75;101525.39;126515;1308;108969;-77
2021/11/15 00:13:29;;;;;;;61.60;29.30;;;;;;;6.05;76.66;101527.95;126436;1309;108765;-78
2021/11/15 00:16:35;;;;;;;58.10;29.20;;;;;;;6.06;76.75;101531.04;126498;1309;107761;-76
2021/11/15 00:19:40;;;;;;;60.50;30.50;;;;;;;6.05;76.55;101536.08;126514;1309;108855;-77
2021/11/15 00:22:46;;;;;;;62.10;29.90;;;;;;;6.03;76.50;101535.98;126740;1309;108575;-78
2021/11/15 00:25:52;;;;;;;56.80;27.60;;;;;;;6.02;76.81;101538.35;126706;1309;107533;-77
2021/11/15 00:28:58;;;;;;;62.20;28.20;;;;;;;6.02;76.67;101539.61;126949;1307;107683;-79
2021/11/15 00:32:04;;;;;;;61.30;29.90;;;;;;;6.03;76.69;101541.69;126693;1308;108594;-76
2021/11/15 00:35:11;;;;;;;59.90;28.80;;;;;;;6.03;76.67;101545.72;126625;1309;108970;-78
2021/11/15 00:38:16;;;;;;;57.80;30.70;;;;;;;6.04;76.60;101545.14;126555;1315;107794;-79
2021/11/15 00:41:22;;;;;;;63.30;29.70;;;;;;;6.04;76.79;101544.25;126563;1309;108948;-81
2021/11/15 00:44:28;;;;;;;57.10;28.60;;;;;;;6.03;76.62;101544.31;126915;1312;107016;-79
2021/11/15 00:47:33;;;;;;;56.60;28.60;;;;;;;6.03;76.77;101548.20;126942;1309;108982;-81
2021/11/15 00:50:41;;;;;;;55.20;28.90;;;;;;;6.02;76.82;101546.64;126972;1307;106784;-80
2021/11/15 00:53:46;;;;;;;56.90;26.60;;;;;;;6.01;76.78;101548.48;126573;1309;107906;-78
2021/11/15 00:56:51;;;;;;;56.40;26.80;;;;;;;5.99;76.64;101550.73;126906;1309;108724;-82
2021/11/15 00:59:57;;;;;;;56.30;27.40;;;;;;;5.96;76.71;101547.77;127044;1309;108874;-81
2021/11/15 01:03:06;;;;;;;61.70;30.30;;;;;;;5.96;76.79;101548.06;127058;1310;108786;-79
2021/11/15 01:06:12;;;;;;;62.90;31.60;;;;;;;6.02;76.74;101546.66;126853;1309;108600;-79
2021/11/15 01:09:17;;;;;;;58.60;29.40;;;;;;;6.05;76.91;101546.86;126669;1309;107818;-79
2021/11/15 01:12:23;;;;;;;58.20;29.60;;;;;;;6.04;76.72;101549.02;127011;1309;108976;-80
2021/11/15 01:15:32;;;;;;;64.10;32.10;;;;;;;6.03;76.81;101554.03;126809;1310;108838;-80
2021/11/15 01:18:41;;;;;;;61.30;28.40;;;;;;;6.01;77.00;101549.54;126608;1313;108679;-80
2021/11/15 01:21:48;;;;;;;55.80;26.60;;;;;;;6.00;77.00;101547.33;126543;1309;108838;-80
2021/11/15 01:24:53;;;;;;;62.00;28.80;;;;;;;6.02;76.91;101548.63;126576;1309;107230;-80
2021/11/15 01:27:59;;;;;;;56.40;27.80;;;;;;;6.04;76.79;101550.98;126792;1308;109196;-76
2021/11/15 01:31:05;;;;;;;61.70;27.30;;;;;;;6.11;76.98;101557.98;126524;1309;108721;-76
2021/11/15 01:34:11;;;;;;;57.30;28.30;;;;;;;6.15;77.11;101562.52;126920;1309;108653;-76
2021/11/15 01:37:16;;;;;;;65.50;32.70;;;;;;;6.15;76.88;101568.31;126652;1309;108901;-78
2021/11/15 01:40:25;;;;;;;64.00;32.00;;;;;;;6.15;76.85;101565.14;126909;1308;108800;-77
2021/11/15 01:43:31;;;;;;;64.10;31.30;;;;;;;6.12;76.88;101564.61;126780;1313;108914;-78
2021/11/15 01:46:36;;;;;;;57.70;27.00;;;;;;;6.12;76.89;101563.23;126770;1309;109018;-79
2021/11/15 01:49:42;;;;;;;59.40;27.00;;;;;;;6.10;76.89;101562.45;126823;1309;108795;-78
2021/11/15 01:52:48;;;;;;;57.80;26.90;;;;;;;6.11;76.73;101563.08;126694;1310;108983;-77
2021/11/15 01:55:54;;;;;;;57.90;27.70;;;;;;;6.10;76.82;101559.64;126719;1313;109012;-78
2021/11/15 01:59:01;;;;;;;58.40;28.60;;;;;;;6.16;76.88;101557.00;126996;1309;108682;-78
2021/11/15 02:02:07;;;;;;;53.30;26.80;;;;;;;6.20;76.86;101551.79;127002;1309;108861;-78
2021/11/15 02:05:12;;;;;;;58.30;28.10;;;;;;;6.22;77.01;101551.10;126808;1310;108984;-78
2021/11/15 02:08:19;;;;;;;54.30;28.30;;;;;;;6.23;76.94;101553.02;126672;1309;108882;-76
2021/11/15 02:11:24;;;;;;;56.30;28.00;;;;;;;6.18;76.74;101555.78;126738;1309;109086;-75
2021/11/15 02:14:30;;;;;;;51.80;24.20;;;;;;;6.12;76.80;101553.64;126486;1309;107727;-75
2021/11/15 02:17:35;;;;;;;51.30;24.80;;;;;;;6.09;76.70;101555.80;126590;1310;108755;-76
2021/11/15 02:20:52;;;;;;;55.90;27.30;;;;;;;6.07;76.80;101555.02;126719;1309;108959;-78
2021/11/15 02:23:58;;;;;;;54.20;26.30;;;;;;;6.09;76.92;101556.16;126552;1309;108770;-75
2021/11/15 02:27:04;;;;;;;58.40;27.00;;;;;;;6.10;76.82;101556.79;126511;1312;108675;-77
2021/11/15 02:30:17;;;;;;;54.70;28.20;;;;;;;6.13;76.81;101554.70;126490;1309;107786;-79
2021/11/15 02:33:23;;;;;;;55.60;27.80;;;;;;;6.13;76.78;101553.77;126731;1309;108777;-78
2021/11/15 02:36:29;;;;;;;55.10;27.60;;;;;;;6.09;76.78;101551.02;126588;1309;109044;-78
2021/11/15 02:39:34;;;;;;;56.00;28.60;;;;;;;6.06;76.65;101551.21;126948;1310;108740;-80
2021/11/15 02:42:42;;;;;;;49.60;24.80;;;;;;;6.02;76.79;101553.20;126789;1312;108691;-81
2021/11/15 02:45:47;;;;;;;52.60;24.90;;;;;;;6.00;76.75;101558.48;126698;1309;109052;-81
2021/11/15 02:48:53;;;;;;;48.30;23.40;;;;;;;6.00;76.75;101560.20;126607;1309;107165;-81
2021/11/15 02:51:59;;;;;;;51.20;26.10;;;;;;;6.00;76.89;101565.48;126657;1307;108860;-81
2021/11/15 02:55:06;;;;;;;54.30;26.80;;;;;;;6.03;76.77;101569.40;126582;1309;110291;-80
2021/11/15 02:58:13;;;;;;;51.20;25.40;;;;;;;6.04;76.85;101569.67;126838;1309;108791;-79
2021/11/15 03:01:21;;;;;;;53.10;26.70;;;;;;;6.05;76.61;101579.15;126633;1310;107733;-79
2021/11/15 03:04:27;;;;;;;48.70;25.80;;;;;;;6.05;76.68;101575.14;126578;1309;108748;-79
2021/11/15 03:07:32;;;;;;;51.70;26.70;;;;;;;6.02;76.83;101573.88;126516;1309;109127;-80
2021/11/15 03:10:39;;;;;;;45.40;23.10;;;;;;;6.01;76.86;101572.38;126591;1313;105921;-83
2021/11/15 03:13:48;;;;;;;46.90;22.80;;;;;;;5.99;76.72;101577.23;126655;1309;108609;-80
2021/11/15 03:16:53;;;;;;;47.80;23.90;;;;;;;5.99;76.66;101575.46;126983;1309;108805;-79
2021/11/15 03:19:58;;;;;;;44.80;24.00;;;;;;;6.00;76.66;101578.22;126691;1309;108924;-76
2021/11/15 03:23:08;;;;;;;48.50;24.90;;;;;;;6.04;76.73;101577.30;126570;1309;108970;-79
2021/11/15 03:26:16;;;;;;;55.40;30.60;;;;;;;6.06;76.80;101584.41;126553;1312;108856;-80
2021/11/15 03:29:21;;;;;;;56.50;32.00;;;;;;;6.06;76.82;101579.48;126512;1309;108720;-77
2021/11/15 03:32:26;;;;;;;60.90;31.30;;;;;;;6.03;76.69;101581.42;126511;1309;107862;-79
2021/11/15 03:35:32;;;;;;;55.80;31.40;;;;;;;5.99;76.57;101586.40;126746;1310;108877;-77
2021/11/15 03:38:37;;;;;;;52.00;27.70;;;;;;;5.96;76.70;101586.42;126618;1309;108928;-77
2021/11/15 03:41:46;;;;;;;46.50;23.70;;;;;;;5.94;76.56;101583.66;126768;1309;108973;-80
2021/11/15 03:44:51;;;;;;;46.20;24.80;;;;;;;5.96;76.71;101587.51;126728;1307;106115;-80
2021/11/15 03:47:58;;;;;;;46.70;24.40;;;;;;;5.99;76.79;101587.83;126732;1309;108579;-83
2021/11/15 03:51:03;;;;;;;42.70;23.00;;;;;;;6.03;76.81;101586.02;126761;1308;108916;-83
2021/11/15 03:54:09;;;;;;;44.30;24.90;;;;;;;6.04;76.84;101583.30;126628;1309;108705;-83
2021/11/15 03:57:15;;;;;;;42.40;23.80;;;;;;;6.01;76.37;101582.79;126665;1309;108783;-80
2021/11/15 04:00:23;;;;;;;41.80;22.30;;;;;;;5.98;76.58;101586.81;126427;1312;108850;-83
2021/11/15 04:03:31;;;;;;;41.90;22.80;;;;;;;5.96;76.55;101586.77;126590;1309;109077;-82
2021/11/15 04:06:40;;;;;;;42.80;21.80;;;;;;;5.92;76.67;101585.57;126839;1309;108843;-80
2021/11/15 04:09:46;;;;;;;38.60;20.70;;;;;;;5.89;76.61;101594.34;126975;1309;108934;-82
2021/11/15 04:12:53;;;;;;;41.10;22.20;;;;;;;5.92;76.77;101592.46;126793;1309;107806;-81
2021/11/15 04:16:03;;;;;;;39.70;23.00;;;;;;;5.95;76.60;101591.06;126743;1309;108827;-82
2021/11/15 04:19:13;;;;;;;37.70;21.80;;;;;;;6.01;76.64;101596.22;126926;1309;108734;-82
2021/11/15 04:22:18;;;;;;;38.60;21.90;;;;;;;6.04;76.55;101594.96;127049;1309;108947;-81
2021/11/15 04:25:24;;;;;;;36.70;22.00;;;;;;;6.05;76.53;101597.22;126894;1309;109066;-81
2021/11/15 04:28:30;;;;;;;39.90;23.10;;;;;;;6.05;76.50;101597.20;127025;1309;106882;-81
2021/11/15 04:31:35;;;;;;;40.40;22.30;;;;;;;6.03;76.70;101598.70;127333;1309;108972;-79
2021/11/15 04:34:40;;;;;;;37.70;20.50;;;;;;;6.00;76.48;101598.73;127288;1309;109787;-81
2021/11/15 04:37:47;;;;;;;39.40;21.60;;;;;;;5.97;76.52;101596.98;127006;1306;175734;-80
2021/11/15 04:40:53;;;;;;;39.90;20.90;;;;;;;5.97;76.38;101600.66;126834;1309;108795;-84
2021/11/15 04:43:58;;;;;;;40.30;21.50;;;;;;;6.00;76.56;101599.09;126519;1309;108721;-81
2021/11/15 04:47:05;;;;;;;39.40;22.30;;;;;;;6.05;76.36;101601.23;126787;1309;107826;-81
2021/11/15 04:50:12;;;;;;;37.40;23.10;;;;;;;6.07;76.45;101599.17;126790;1309;108740;-82
2021/11/15 04:53:17;;;;;;;40.30;22.50;;;;;;;6.06;76.38;101602.05;126960;1309;108997;-84
2021/11/15 04:56:23;;;;;;;37.70;21.60;;;;;;;6.04;76.24;101601.67;126936;1309;108183;-82
2021/11/15 04:59:28;;;;;;;37.80;20.90;;;;;;;6.02;76.31;101606.94;126596;1309;107725;-81
2021/11/15 05:02:34;;;;;;;39.80;19.50;;;;;;;5.98;76.33;101610.00;126851;1309;108760;-78
2021/11/15 05:05:39;;;;;;;42.70;22.50;;;;;;;5.96;76.37;101612.41;126946;1309;108893;-82
2021/11/15 05:08:46;;;;;;;38.70;21.00;;;;;;;5.95;76.43;101613.66;126891;1309;108694;-82
2021/11/15 05:11:52;;;;;;;38.60;20.80;;;;;;;5.96;76.38;101620.86;126571;1309;108755;-83
2021/11/15 05:14:57;;;;;;;41.00;22.70;;;;;;;5.97;76.51;101620.31;126704;1309;108769;-82
2021/11/15 05:18:03;;;;;;;40.90;21.80;;;;;;;6.00;76.40;101620.06;126832;1309;108600;-79
2021/11/15 05:21:09;;;;;;;38.50;21.40;;;;;;;6.03;76.30;101618.49;126907;1309;108845;-82
2021/11/15 05:24:14;;;;;;;40.40;21.80;;;;;;;6.04;76.33;101619.00;126981;1309;108879;-83
2021/11/15 05:27:20;;;;;;;40.20;21.60;;;;;;;6.02;76.26;101615.40;126970;1309;108684;-82
2021/11/15 05:30:25;;;;;;;40.30;21.20;;;;;;;5.98;76.25;101615.48;126940;1309;108696;-83
2021/11/15 05:33:30;;;;;;;40.90;20.30;;;;;;;5.95;76.34;101618.77;126994;1309;108930;-82
2021/11/15 05:36:36;;;;;;;40.40;20.10;;;;;;;5.95;76.33;101622.15;126975;1309;108909;-83
2021/11/15 05:39:42;;;;;;;42.30;21.30;;;;;;;5.95;76.29;101629.75;126481;1309;108807;-81
2021/11/15 05:42:47;;;;;;;42.30;21.80;;;;;;;5.97;76.23;101628.38;126845;1309;108961;-84
2021/11/15 05:45:54;;;;;;;40.80;21.90;;;;;;;5.99;76.11;101638.89;127025;1309;108718;-82
2021/11/15 05:48:59;;;;;;;39.50;21.40;;;;;;;5.99;76.08;101641.89;126901;1309;108289;-81
2021/11/15 05:52:06;;;;;;;41.70;22.70;;;;;;;5.99;76.15;101647.19;126832;1309;109043;-81
2021/11/15 05:55:16;;;;;;;46.00;23.40;;;;;;;5.96;76.11;101648.25;127218;1309;107685;-81
2021/11/15 05:58:21;;;;;;;45.40;22.20;;;;;;;5.91;76.16;101653.23;127261;1308;107410;-81
2021/11/15 06:01:27;;;;;;;47.10;22.80;;;;;;;5.90;76.00;101653.13;126602;1309;108787;-85
2021/11/15 06:04:32;;;;;;;41.30;22.70;;;;;;;5.90;76.22;101658.59;126556;1309;107780;-81
2021/11/15 06:07:38;;;;;;;42.90;23.20;;;;;;;5.96;76.05;101660.42;126672;1309;107756;-80
2021/11/15 06:10:44;;;;;;;40.70;22.10;;;;;;;5.99;76.21;101663.42;126874;1309;107836;-77
2021/11/15 06:13:49;;;;;;;42.70;23.20;;;;;;;6.02;75.98;101670.34;126425;1309;108778;-77
2021/11/15 06:16:54;;;;;;;43.30;22.90;;;;;;;6.03;76.03;101673.98;126551;1314;108925;-79
2021/11/15 06:20:00;;;;;;;48.00;24.90;;;;;;;6.02;76.34;101680.39;126837;1310;107493;-78
2021/11/15 06:23:05;;;;;;;51.40;28.30;;;;;;;6.01;75.97;101686.64;126923;1309;108442;-79
2021/11/15 06:26:11;;;;;;;66.10;33.10;;;;;;;5.97;76.04;101681.95;126800;1309;108769;-78
2021/11/15 06:29:16;;;;;;;61.80;29.10;;;;;;;5.94;75.97;101685.27;126510;1309;108947;-79
2021/11/15 06:32:22;;;;;;;57.10;28.10;;;;;;;5.89;76.00;101692.93;126568;1309;108915;-79
2021/11/15 06:35:29;;;;;;;43.70;21.80;;;;;;;5.89;75.91;101694.52;126835;1309;108760;-78
2021/11/15 06:38:34;;;;;;;42.80;21.90;;;;;;;5.94;76.06;101695.51;126714;1309;108902;-78
2021/11/15 06:41:42;;;;;;;38.90;20.80;;;;;;;5.97;75.95;101700.45;126526;1309;108683;-77
2021/11/15 06:44:48;;;;;;;41.90;22.40;;;;;;;6.02;75.82;101705.84;126792;1312;108812;-78
2021/11/15 06:47:53;;;;;;;38.90;21.10;;;;;;;6.02;75.71;101712.17;126900;1309;108896;-79
2021/11/15 06:50:59;;;;;;;44.10;23.30;;;;;;;5.97;75.74;101711.40;126892;1309;109510;-78
2021/11/15 06:54:04;;;;;;;43.70;24.00;;;;;;;5.94;75.79;101709.10;126691;1308;109193;-79
2021/11/15 06:57:10;;;;;;;43.20;21.20;;;;;;;5.93;75.86;101708.98;126840;1309;108470;-80
2021/11/15 07:00:20;;;;;;;45.60;21.40;;;;;;;5.90;75.87;101708.05;126609;1309;108716;-78
2021/11/15 07:03:26;;;;;;;40.80;20.90;;;;;;;5.91;75.75;101712.80;126529;1312;108894;-78
2021/11/15 07:06:32;;;;;;;44.30;22.80;;;;;;;5.94;75.84;101717.20;126505;1309;108682;-78
2021/11/15 07:09:38;;;;;;;41.10;23.10;;;;;;;5.98;75.74;101714.70;126362;1309;108883;-79
2021/11/15 07:12:44;;;;;;;44.90;23.70;;;;;;;6.01;75.71;101714.00;126453;1312;109059;-78
2021/11/15 07:15:50;;;;;;;43.10;23.30;;;;;;;6.03;75.60;101716.53;126373;1309;107446;-77
2021/11/15 07:18:56;;;;;;;45.40;24.20;;;;;;;6.04;75.65;101720.23;126624;1309;108929;-78
2021/11/15 07:22:02;;;;;;;49.60;24.40;;;;;;;6.04;75.64;101722.52;126822;1312;108661;-79
2021/11/15 07:25:09;;;;;;;47.50;23.90;;;;;;;6.01;75.74;101722.33;126844;1309;108794;-79
2021/11/15 07:28:14;;;;;;;47.00;24.10;;;;;;;6.00;75.67;101719.36;126518;1309;108873;-80
2021/11/15 07:31:20;;;;;;;45.20;22.90;;;;;;;6.02;75.72;101717.67;126750;1312;108911;-82
2021/11/15 07:34:28;;;;;;;44.30;24.10;;;;;;;6.08;75.77;101713.27;126579;1312;108456;-82
2021/11/15 07:37:33;;;;;;;45.20;22.70;;;;;;;6.16;75.84;101713.16;126958;1310;107760;-82
2021/11/15 07:40:39;;;;;;;45.50;23.30;;;;;;;6.19;75.69;101709.79;126842;1312;108848;-79
2021/11/15 07:43:45;;;;;;;44.70;23.40;;;;;;;6.21;75.76;101712.30;126736;1309;108733;-79
2021/11/15 07:46:50;;;;;;;47.50;25.00;;;;;;;6.23;75.71;101715.41;126869;1309;107051;-77
2021/11/15 07:49:56;;;;;;;44.60;23.70;;;;;;;6.21;75.51;101709.70;126587;1309;108843;-78
2021/11/15 07:53:01;;;;;;;40.20;20.90;;;;;;;6.18;75.74;101713.93;126495;1309;108747;-78
2021/11/15 07:56:09;;;;;;;47.80;24.50;;;;;;;6.16;75.73;101716.33;126922;1309;108938;-82
2021/11/15 07:59:14;;;;;;;43.60;21.70;;;;;;;6.18;75.75;101722.77;126974;1309;109052;-80
2021/11/15 08:02:20;;;;;;;50.40;24.80;;;;;;;6.22;75.77;101723.58;126760;1309;108930;-78
2021/11/15 08:05:26;;;;;;;45.50;23.80;;;;;;;6.28;75.67;101723.56;126419;1309;108926;-78
2021/11/15 08:08:33;;;;;;;46.20;22.70;;;;;;;6.34;75.59;101724.33;126819;1309;108486;-80
2021/11/15 08:11:43;;;;;;;42.20;22.20;;;;;;;6.35;75.72;101722.31;126996;1309;109575;-80
2021/11/15 08:14:49;;;;;;;43.50;23.50;;;;;;;6.32;75.59;101719.30;126788;1309;108796;-80
2021/11/15 08:17:56;;;;;;;43.90;23.60;;;;;;;6.33;75.41;101722.45;126961;1309;107687;-81
2021/11/15 08:21:02;;;;;;;45.50;22.90;;;;;;;6.33;75.57;101720.31;126963;1309;108762;-80
2021/11/15 08:24:42;;;;;;;41.30;21.00;;;;;;;6.32;75.41;101716.09;127030;1312;107894;-80
2021/11/15 08:27:48;;;;;;;38.90;19.40;;;;;;;6.33;75.50;101716.98;126828;1309;108895;-80
2021/11/15 08:30:53;;;;;;;40.80;21.20;;;;;;;6.35;75.59;101716.63;126716;1309;108729;-81
2021/11/15 08:33:59;;;;;;;36.90;20.10;;;;;;;6.41;75.74;101721.04;126473;1309;108716;-78
2021/11/15 08:37:06;;;;;;;44.10;22.80;;;;;;;6.48;75.32;101722.60;126905;1312;106685;-80
2021/11/15 08:40:12;;;;;;;45.30;21.90;;;;;;;6.51;75.44;101719.98;126745;1309;109015;-81
2021/11/15 08:43:20;;;;;;;40.90;21.30;;;;;;;6.47;75.53;101726.05;126776;1309;108841;-78
2021/11/15 08:46:28;;;;;;;45.90;24.20;;;;;;;6.45;75.68;101723.45;126483;1310;108835;-80
2021/11/15 08:49:35;;;;;;;51.40;25.50;;;;;;;6.43;75.64;101723.77;126877;1309;107527;-81
2021/11/15 08:52:41;;;;;;;51.90;22.10;;;;;;;6.43;75.76;101725.18;126563;1309;108899;-81
2021/11/15 08:55:46;;;;;;;57.20;22.40;;;;;;;6.42;75.74;101726.16;126952;1313;107921;-81
2021/11/15 08:58:52;;;;;;;58.20;23.60;;;;;;;6.44;75.93;101726.89;126925;1312;108791;-80
2021/11/15 09:01:58;;;;;;;54.20;23.50;;;;;;;6.48;75.98;101719.73;126789;1309;109782;-80
2021/11/15 09:05:04;;;;;;;52.10;23.40;;;;;;;6.55;75.88;101721.48;126859;1309;108985;-81
2021/11/15 09:08:10;;;;;;;53.70;25.30;;;;;;;6.58;75.56;101720.77;127020;1309;107821;-80
2021/11/15 09:11:16;;;;;;;51.80;24.50;;;;;;;6.57;75.94;101720.85;127011;1309;108804;-80
2021/11/15 09:14:23;;;;;;;50.30;24.40;;;;;;;6.55;75.91;101723.08;126774;1309;108771;-80
2021/11/15 09:17:28;;;;;;;53.60;22.20;;;;;;;6.54;76.09;101719.05;126885;1308;108738;-79
2021/11/15 09:20:34;;;;;;;54.10;21.70;;;;;;;6.53;76.01;101721.95;126724;1309;108708;-79
2021/11/15 09:23:42;;;;;;;56.70;24.10;;;;;;;6.54;76.24;101720.48;126822;1309;108762;-79
2021/11/15 09:26:49;;;;;;;56.10;24.10;;;;;;;6.58;76.17;101720.08;127041;1307;108774;-79
2021/11/15 09:29:55;;;;;;;53.80;24.10;;;;;;;6.64;76.00;101719.19;127009;1309;108870;-81
2021/11/15 09:33:01;;;;;;;54.60;23.50;;;;;;;6.66;76.11;101719.92;127878;1309;107776;-80
2021/11/15 09:36:07;;;;;;;49.20;23.20;;;;;;;6.66;76.15;101719.75;126729;1309;107931;-78
2021/11/15 09:39:14;;;;;;;45.30;23.20;;;;;;;6.65;76.16;101719.09;126554;1312;109266;-80
2021/11/15 09:42:20;;;;;;;49.00;21.40;;;;;;;6.65;75.94;101718.76;126777;1309;109043;-81
2021/11/15 09:45:25;;;;;;;56.10;23.80;;;;;;;6.66;75.97;101722.42;126971;1309;107854;-80
2021/11/15 09:48:34;;;;;;;53.80;25.20;;;;;;;6.67;76.00;101725.51;126707;1314;107691;-82
2021/11/15 10:09:06;;;;;;;62.60;30.00;;;;;;;7.01;75.97;101719.77;122604;1354;649112;-83
2021/11/15 10:12:15;;;;;;;67.80;31.60;;;;;;;7.16;76.14;101716.41;125380;1319;176129;-82
2021/11/15 10:15:21;;;;;;;57.30;26.80;;;;;;;7.18;76.15;101710.95;125538;1322;108847;-82
2021/11/15 10:18:39;;;;;;;55.80;24.20;;;;;;;7.18;76.27;101708.80;125492;1322;108754;-84
2021/11/15 10:21:50;;;;;;;68.30;31.70;;;;;;;7.18;76.08;101713.77;125556;1322;106818;-82
2021/11/15 10:24:55;;;;;;;63.10;31.50;;;;;;;7.20;76.13;101716.65;125574;1322;108850;-83
2021/11/15 10:28:09;;;;;;;68.90;32.60;;;;;;;7.24;76.06;101717.29;125275;1325;108925;-82
2021/11/15 10:31:30;;;;;;;75.30;36.20;;;;;;;7.28;76.26;101717.59;125150;1324;109029;-82
2021/11/15 10:34:38;;;;;;;71.30;33.70;;;;;;;7.28;76.10;101718.13;125224;1323;108790;-83
2021/11/15 10:37:44;;;;;;;69.20;31.40;;;;;;;7.26;76.30;101715.39;125132;1322;108733;-82
2021/11/15 10:40:50;;;;;;;61.30;26.50;;;;;;;7.22;76.25;101720.41;125849;1322;108908;-83
2021/11/15 10:44:00;;;;;;;63.90;26.50;;;;;;;7.18;76.25;101719.79;125870;1319;107425;-83
2021/11/15 10:47:06;;;;;;;69.60;28.80;;;;;;;7.14;76.32;101721.84;125808;1319;109009;-83
2021/11/15 10:50:22;;;;;;;68.80;30.80;;;;;;;7.15;76.64;101720.90;125664;1319;108753;-83
2021/11/15 10:53:43;;;;;;;67.30;30.00;;;;;;;7.16;76.24;101718.20;125860;1319;108845;-83
2021/11/15 10:56:52;;;;;;;67.80;32.70;;;;;;;7.15;76.11;101716.13;125876;1319;108623;-82
2021/11/15 11:00:29;;;;;;;70.60;30.70;;;;;;;7.15;76.33;101712.23;125792;1319;108922;-83
2021/11/15 11:03:37;;;;;;;70.00;30.70;;;;;;;7.15;76.50;101709.73;125924;1319;108849;-83
2021/11/15 11:10:21;;;;;;;61.90;27.00;;;;;;;7.16;76.30;101705.95;122931;1351;636188;-83
2021/11/15 11:13:39;;;;;;;68.60;30.10;;;;;;;7.18;76.51;101703.36;125812;1323;108805;-82
2021/11/15 11:16:48;;;;;;;62.10;30.20;;;;;;;7.25;76.26;101705.94;126139;1322;108204;-83
2021/11/15 11:20:08;;;;;;;68.70;31.70;;;;;;;7.29;76.63;101702.33;127053;1326;108205;-83
2021/11/15 11:23:27;;;;;;;69.60;30.80;;;;;;;7.32;76.58;101704.26;125638;1319;294053;-82
2021/11/15 11:26:35;;;;;;;60.50;29.90;;;;;;;7.34;76.45;101702.02;126064;1319;108787;-82
2021/11/15 11:29:43;;;;;;;63.10;29.60;;;;;;;7.35;76.58;101701.95;125992;1319;108808;-82
2021/11/15 11:32:52;;;;;;;64.10;27.40;;;;;;;7.33;76.42;101699.56;125896;1325;108020;-82
2021/11/15 11:35:58;;;;;;;61.30;27.10;;;;;;;7.33;76.59;101700.98;125789;1325;108802;-83
2021/11/15 11:39:08;;;;;;;59.00;29.50;;;;;;;7.33;76.32;101692.70;125882;1322;108889;-82
2021/11/15 11:42:17;;;;;;;63.10;30.00;;;;;;;7.39;76.63;101691.23;125946;1320;108731;-83
2021/11/15 11:45:26;;;;;;;61.80;29.30;;;;;;;7.46;76.37;101689.02;125904;1319;108933;-83
2021/11/15 11:48:32;;;;;;;69.10;33.90;;;;;;;7.52;76.10;101686.73;126538;1316;109840;-82
2021/11/15 11:51:41;;;;;;;63.50;33.90;;;;;;;7.55;76.08;101672.88;126564;1318;108703;-83
2021/11/15 11:54:47;;;;;;;61.10;31.30;;;;;;;7.56;76.03;101671.02;126598;1316;107166;-83
2021/11/15 11:57:53;;;;;;;59.00;30.70;;;;;;;7.55;75.96;101659.20;126540;1316;108806;-82
2021/11/15 12:01:02;;;;;;;55.10;28.00;;;;;;;7.53;75.90;101659.87;126533;1316;108889;-83
2021/11/15 12:04:16;;;;;;;55.40;27.00;;;;;;;7.54;76.06;101659.48;126570;1316;108902;-83
2021/11/15 12:07:28;;;;;;;55.50;30.90;;;;;;;7.58;76.10;101655.66;126523;1315;108736;-81
2021/11/15 12:10:41;;;;;;;58.80;29.50;;;;;;;7.63;76.18;101654.42;126584;1316;107662;-82
2021/11/15 12:13:48;;;;;;;53.40;28.50;;;;;;;7.71;76.00;101657.33;126554;1318;108961;-84
2021/11/15 12:17:00;;;;;;;52.90;28.10;;;;;;;7.77;75.75;101658.52;126586;1313;108693;-83
2021/11/15 12:20:11;;;;;;;57.30;31.00;;;;;;;7.77;75.78;101660.45;126603;1317;108811;-83
2021/11/15 12:23:16;;;;;;;54.20;27.90;;;;;;;7.78;75.64;101663.20;126516;1318;108614;-83
2021/11/15 12:26:25;;;;;;;49.40;25.40;;;;;;;7.73;75.98;101661.39;126519;1317;109027;-83
2021/11/15 12:29:33;;;;;;;49.50;25.70;;;;;;;7.73;75.83;101659.65;126473;1317;108846;-82
2021/11/15 12:32:39;;;;;;;51.00;27.40;;;;;;;7.73;75.87;101656.27;126591;1316;108423;-82
2021/11/15 12:35:55;;;;;;;53.10;27.80;;;;;;;7.79;75.94;101661.56;126543;1317;109863;-83
2021/11/15 12:39:10;;;;;;;55.30;28.50;;;;;;;7.82;75.50;101657.51;126577;1318;108828;-83
2021/11/15 12:42:29;;;;;;;52.90;27.50;;;;;;;7.81;75.56;101656.09;126491;1318;108721;-83
2021/11/15 12:45:34;;;;;;;49.60;27.60;;;;;;;7.80;75.70;101652.98;126542;1315;108754;-82
2021/11/15 12:48:41;;;;;;;51.00;27.10;;;;;;;7.76;75.82;101655.20;126423;1318;108793;-81
2021/11/15 12:51:51;;;;;;;51.30;25.70;;;;;;;7.68;75.81;101654.86;126662;1317;108902;-81
2021/11/15 12:55:00;;;;;;;47.40;24.00;;;;;;;7.65;76.01;101649.39;126508;1316;108815;-82
2021/11/15 12:58:15;;;;;;;55.70;27.70;;;;;;;7.68;75.77;101648.67;126602;1312;108835;-81
2021/11/15 13:01:24;;;;;;;50.40;27.40;;;;;;;7.73;75.53;101646.55;126539;1315;108639;-83
2021/11/15 13:04:30;;;;;;;58.70;30.10;;;;;;;7.77;75.51;101647.53;126500;1315;109671;-84
2021/11/15 13:07:35;;;;;;;56.30;28.70;;;;;;;7.75;75.73;101650.29;126582;1316;108781;-81
2021/11/15 13:10:44;;;;;;;50.60;29.00;;;;;;;7.72;75.72;101650.02;126605;1315;108952;-83
2021/11/15 13:13:50;;;;;;;51.30;28.20;;;;;;;7.68;75.18;101649.68;126470;1316;108838;-82
2021/11/15 13:16:55;;;;;;;52.90;28.20;;;;;;;7.64;75.53;101650.81;126457;1310;108781;-83
2021/11/15 13:20:04;;;;;;;49.00;25.90;;;;;;;7.60;75.46;101647.19;126538;1317;108924;-82
2021/11/15 13:23:09;;;;;;;57.20;26.50;;;;;;;7.58;75.56;101643.99;126646;1315;108734;-86
2021/11/15 13:26:15;;;;;;;48.30;26.30;;;;;;;7.57;75.47;101642.61;126544;1314;109113;-84
2021/11/15 13:29:22;;;;;;;50.00;29.00;;;;;;;7.59;75.56;101638.45;126640;1310;108906;-84
2021/11/15 14:11:22;;;;;;;56.60;32.00;;;;;;;7.36;76.01;101660.48;122712;1353;648423;-86
2021/11/15 14:14:28;;;;;;;54.00;28.30;;;;;;;7.48;75.56;101664.95;125377;1325;262649;-91
2021/11/15 14:17:33;;;;;;;58.90;31.70;;;;;;;7.50;75.63;101667.52;125599;1321;107400;-88
2021/11/15 14:20:39;;;;;;;53.60;30.60;;;;;;;7.52;75.98;101666.66;125477;1322;107941;-88
2021/11/15 14:23:46;;;;;;;61.10;34.10;;;;;;;7.53;75.73;101669.80;125586;1322;109249;-88
2021/11/15 14:26:52;;;;;;;56.20;31.60;;;;;;;7.50;75.70;101671.23;125410;1323;107894;-84
2021/11/15 14:29:58;;;;;;;62.00;33.40;;;;;;;7.47;75.74;101671.27;126642;1317;109217;-83
2021/11/15 14:33:03;;;;;;;66.60;36.50;;;;;;;7.42;75.86;101672.80;126536;1316;108894;-85
2021/11/15 14:36:09;;;;;;;46.70;26.00;;;;;;;7.36;75.80;101673.52;126634;1313;108834;-83
2021/11/15 14:39:14;;;;;;;50.00;26.60;;;;;;;7.32;75.91;101669.55;126866;1316;109064;-89
2021/11/15 14:42:21;;;;;;;52.10;29.00;;;;;;;7.31;75.82;101673.87;126673;1319;107765;-83
2021/11/15 14:45:26;;;;;;;50.80;28.30;;;;;;;7.30;75.83;101674.62;126550;1312;108988;-82
2021/11/15 14:48:32;;;;;;;51.80;28.60;;;;;;;7.29;75.71;101677.19;126638;1313;108991;-88
2021/11/15 14:51:43;;;;;;;54.90;30.70;;;;;;;7.26;75.68;101681.05;127415;1313;107877;-90
2021/11/15 14:55:08;;;;;;;54.70;30.10;;;;;;;7.24;75.98;101683.81;126859;1316;107560;-93
2021/11/15 14:58:38;;;;;;;66.60;38.20;;;;;;;7.21;75.93;101684.56;127000;1313;107873;-94
2021/11/15 15:01:52;;;;;;;55.50;28.60;;;;;;;7.16;75.84;101687.16;126738;1313;107886;-93